sensor_id;sensor_type;location;lat;lon;timestamp;pressure;altitude;pressure_sealevel;temperature
55038;BMP280;40937;53.594;10.034;2023-02-15T00:01:10;103167.59;;;5.31
55038;BMP280;40937;53.594;10.034;2023-02-15T00:03:39;103168.66;;;5.29
55038;BMP280;40937;53.594;10.034;2023-02-15T00:06:06;103162.63;;;5.38
55038;BMP280;40937;53.594;10.034;2023-02-15T00:08:33;103162.88;;;5.35
55038;BMP280;40937;53.594;10.034;2023-02-15T00:11:05;103163.31;;;5.30
55038;BMP280;40937;53.594;10.034;2023-02-15T00:13:33;103152.97;;;5.29
55038;BMP280;40937;53.594;10.034;2023-02-15T00:16:02;103152.97;;;5.29
55038;BMP280;40937;53.594;10.034;2023-02-15T00:18:29;103154.63;;;5.30
55038;BMP280;40937;53.594;10.034;2023-02-15T00:21:02;103146.66;;;5.31
55038;BMP280;40937;53.594;10.034;2023-02-15T00:23:30;103145.50;;;5.34
55038;BMP280;40937;53.594;10.034;2023-02-15T00:26:05;103142.63;;;5.37
55038;BMP280;40937;53.594;10.034;2023-02-15T00:28:33;103136.72;;;5.35
55038;BMP280;40937;53.594;10.034;2023-02-15T00:31:04;103141.94;;;5.35
55038;BMP280;40937;53.594;10.034;2023-02-15T00:33:34;103140.28;;;5.34
55038;BMP280;40937;53.594;10.034;2023-02-15T00:36:04;103135.75;;;5.36
55038;BMP280;40937;53.594;10.034;2023-02-15T00:38:32;103137.66;;;5.34
55038;BMP280;40937;53.594;10.034;2023-02-15T00:41:01;103133.13;;;5.36
55038;BMP280;40937;53.594;10.034;2023-02-15T00:43:30;103131.22;;;5.38
55038;BMP280;40937;53.594;10.034;2023-02-15T00:45:58;103129.81;;;5.34
55038;BMP280;40937;53.594;10.034;2023-02-15T00:48:26;103125.16;;;5.38
55038;BMP280;40937;53.594;10.034;2023-02-15T00:50:54;103129.66;;;5.36
55038;BMP280;40937;53.594;10.034;2023-02-15T00:53:24;103121.00;;;5.35
55038;BMP280;40937;53.594;10.034;2023-02-15T00:55:52;103118.50;;;5.33
55038;BMP280;40937;53.594;10.034;2023-02-15T00:58:20;103124.56;;;5.34
55038;BMP280;40937;53.594;10.034;2023-02-15T01:00:48;103125.56;;;5.33
55038;BMP280;40937;53.594;10.034;2023-02-15T01:03:17;103126.22;;;5.35
55038;BMP280;40937;53.594;10.034;2023-02-15T01:05:44;103120.72;;;5.38
55038;BMP280;40937;53.594;10.034;2023-02-15T01:08:11;103117.72;;;5.43
55038;BMP280;40937;53.594;10.034;2023-02-15T01:10:40;103111.94;;;5.39
55038;BMP280;40937;53.594;10.034;2023-02-15T01:13:08;103120.47;;;5.41
55038;BMP280;40937;53.594;10.034;2023-02-15T01:15:35;103127.63;;;5.39
55038;BMP280;40937;53.594;10.034;2023-02-15T01:18:03;103112.19;;;5.36
55038;BMP280;40937;53.594;10.034;2023-02-15T01:20:34;103114.09;;;5.34
55038;BMP280;40937;53.594;10.034;2023-02-15T01:23:03;103107.50;;;5.30
55038;BMP280;40937;53.594;10.034;2023-02-15T01:25:32;103102.28;;;5.30
55038;BMP280;40937;53.594;10.034;2023-02-15T01:28:01;103096.78;;;5.33
55038;BMP280;40937;53.594;10.034;2023-02-15T01:30:28;103092.34;;;5.33
55038;BMP280;40937;53.594;10.034;2023-02-15T01:32:56;103085.72;;;5.29
55038;BMP280;40937;53.594;10.034;2023-02-15T01:35:23;103083.81;;;5.31
55038;BMP280;40937;53.594;10.034;2023-02-15T01:37:52;103085.47;;;5.32
55038;BMP280;40937;53.594;10.034;2023-02-15T01:40:19;103080.22;;;5.32
55038;BMP280;40937;53.594;10.034;2023-02-15T01:42:50;103075.84;;;5.33
55038;BMP280;40937;53.594;10.034;2023-02-15T01:45:24;103083.81;;;5.31
55038;BMP280;40937;53.594;10.034;2023-02-15T01:47:55;103077.75;;;5.31
55038;BMP280;40937;53.594;10.034;2023-02-15T01:50:27;103079.41;;;5.32
55038;BMP280;40937;53.594;10.034;2023-02-15T01:52:59;103076.94;;;5.30
55038;BMP280;40937;53.594;10.034;2023-02-15T01:55:32;103082.16;;;5.30
55038;BMP280;40937;53.594;10.034;2023-02-15T01:58:00;103080.22;;;5.32
55038;BMP280;40937;53.594;10.034;2023-02-15T02:00:31;103076.09;;;5.30
55038;BMP280;40937;53.594;10.034;2023-02-15T02:03:00;103073.63;;;5.28
55038;BMP280;40937;53.594;10.034;2023-02-15T02:05:28;103070.88;;;5.30
55038;BMP280;40937;53.594;10.034;2023-02-15T02:07:58;103067.53;;;5.28
55038;BMP280;40937;53.594;10.034;2023-02-15T02:10:26;103057.06;;;5.28
55038;BMP280;40937;53.594;10.034;2023-02-15T02:12:58;103059.97;;;5.25
55038;BMP280;40937;53.594;10.034;2023-02-15T02:15:33;103059.00;;;5.26
55038;BMP280;40937;53.594;10.034;2023-02-15T02:18:14;103052.81;;;5.27
55038;BMP280;40937;53.594;10.034;2023-02-15T02:21:24;103046.34;;;5.31
55038;BMP280;40937;53.594;10.034;2023-02-15T02:24:16;103047.59;;;5.27
55038;BMP280;40937;53.594;10.034;2023-02-15T02:27:18;103042.22;;;5.28
55038;BMP280;40937;53.594;10.034;2023-02-15T02:33:04;103029.53;;;5.24
55038;BMP280;40937;53.594;10.034;2023-02-15T02:35:38;103027.84;;;5.23
55038;BMP280;40937;53.594;10.034;2023-02-15T02:38:12;103032.00;;;5.25
55038;BMP280;40937;53.594;10.034;2023-02-15T02:40:48;103018.53;;;5.30
55038;BMP280;40937;53.594;10.034;2023-02-15T02:43:22;103020.41;;;5.28
55038;BMP280;40937;53.594;10.034;2023-02-15T02:45:57;103021.41;;;5.27
55038;BMP280;40937;53.594;10.034;2023-02-15T02:48:27;103013.28;;;5.30
55038;BMP280;40937;53.594;10.034;2023-02-15T02:50:56;103012.56;;;5.28
55038;BMP280;40937;53.594;10.034;2023-02-15T02:53:23;103017.53;;;5.31
55038;BMP280;40937;53.594;10.034;2023-02-15T02:55:52;103009.94;;;5.28
55038;BMP280;40937;53.594;10.034;2023-02-15T02:58:25;103017.38;;;5.23
55038;BMP280;40937;53.594;10.034;2023-02-15T03:00:55;103004.72;;;5.28
55038;BMP280;40937;53.594;10.034;2023-02-15T03:03:27;103009.53;;;5.23
55038;BMP280;40937;53.594;10.034;2023-02-15T03:05:57;103005.56;;;5.19
55038;BMP280;40937;53.594;10.034;2023-02-15T03:08:32;103003.88;;;5.18
55038;BMP280;40937;53.594;10.034;2023-02-15T03:11:03;102996.16;;;5.16
55038;BMP280;40937;53.594;10.034;2023-02-15T03:13:32;103000.31;;;5.19
55038;BMP280;40937;53.594;10.034;2023-02-15T03:16:00;102998.66;;;5.18
55038;BMP280;40937;53.594;10.034;2023-02-15T03:18:50;103002.50;;;5.13
55038;BMP280;40937;53.594;10.034;2023-02-15T03:21:27;102995.78;;;5.11
55038;BMP280;40937;53.594;10.034;2023-02-15T03:24:01;102992.03;;;5.13
55038;BMP280;40937;53.594;10.034;2023-02-15T03:26:32;102995.66;;;5.12
55038;BMP280;40937;53.594;10.034;2023-02-15T03:29:03;102994.78;;;5.12
55038;BMP280;40937;53.594;10.034;2023-02-15T03:31:32;102989.00;;;5.08
55038;BMP280;40937;53.594;10.034;2023-02-15T03:34:06;102980.34;;;5.08
55038;BMP280;40937;53.594;10.034;2023-02-15T03:36:41;102984.84;;;5.06
55038;BMP280;40937;53.594;10.034;2023-02-15T03:39:15;102981.84;;;5.10
55038;BMP280;40937;53.594;10.034;2023-02-15T03:41:48;102987.09;;;5.10
55038;BMP280;40937;53.594;10.034;2023-02-15T03:44:19;102971.66;;;5.07
55038;BMP280;40937;53.594;10.034;2023-02-15T03:46:53;102974.97;;;5.09
55038;BMP280;40937;53.594;10.034;2023-02-15T03:49:28;102974.72;;;5.12
55038;BMP280;40937;53.594;10.034;2023-02-15T03:51:58;102968.06;;;5.08
55038;BMP280;40937;53.594;10.034;2023-02-15T03:54:29;102975.78;;;5.10
55038;BMP280;40937;53.594;10.034;2023-02-15T03:57:16;102969.03;;;5.07
55038;BMP280;40937;53.594;10.034;2023-02-15T04:00:04;102967.66;;;5.03
55038;BMP280;40937;53.594;10.034;2023-02-15T04:03:00;102973.84;;;5.02
55038;BMP280;40937;53.594;10.034;2023-02-15T04:05:32;102966.00;;;5.02
55038;BMP280;40937;53.594;10.034;2023-02-15T04:07:59;102960.06;;;5.00
55038;BMP280;40937;53.594;10.034;2023-02-15T04:10:26;102959.22;;;5.00
55038;BMP280;40937;53.594;10.034;2023-02-15T04:13:11;102954.84;;;5.00
55038;BMP280;40937;53.594;10.034;2023-02-15T04:15:38;102952.22;;;5.00
55038;BMP280;40937;53.594;10.034;2023-02-15T04:18:23;102957.63;;;4.99
55038;BMP280;40937;53.594;10.034;2023-02-15T04:21:09;102947.16;;;4.99
55038;BMP280;40937;53.594;10.034;2023-02-15T04:23:54;102945.50;;;4.98
55038;BMP280;40937;53.594;10.034;2023-02-15T04:26:38;102951.81;;;4.95
55038;BMP280;40937;53.594;10.034;2023-02-15T04:29:05;102948.25;;;4.96
55038;BMP280;40937;53.594;10.034;2023-02-15T04:31:32;102953.47;;;4.96
55038;BMP280;40937;53.594;10.034;2023-02-15T04:34:00;102946.03;;;4.91
55038;BMP280;40937;53.594;10.034;2023-02-15T04:36:28;102941.06;;;4.88
55038;BMP280;40937;53.594;10.034;2023-02-15T04:39:15;102944.63;;;4.87
55038;BMP280;40937;53.594;10.034;2023-02-15T04:41:43;102948.22;;;4.86
55038;BMP280;40937;53.594;10.034;2023-02-15T04:44:10;102946.16;;;4.90
55038;BMP280;40937;53.594;10.034;2023-02-15T04:46:37;102938.31;;;4.90
55038;BMP280;40937;53.594;10.034;2023-02-15T04:49:05;102935.81;;;4.88
55038;BMP280;40937;53.594;10.034;2023-02-15T04:51:33;102936.91;;;4.86
55038;BMP280;40937;53.594;10.034;2023-02-15T04:54:00;102931.94;;;4.83
55038;BMP280;40937;53.594;10.034;2023-02-15T04:56:27;102929.06;;;4.86
55038;BMP280;40937;53.594;10.034;2023-02-15T04:58:55;102926.72;;;4.83
55038;BMP280;40937;53.594;10.034;2023-02-15T05:01:23;102927.69;;;4.82
55038;BMP280;40937;53.594;10.034;2023-02-15T05:03:50;102920.16;;;4.79
55038;BMP280;40937;53.594;10.034;2023-02-15T05:06:17;102928.94;;;4.77
55038;BMP280;40937;53.594;10.034;2023-02-15T05:08:45;102926.59;;;4.74
55038;BMP280;40937;53.594;10.034;2023-02-15T05:11:13;102929.72;;;4.68
55038;BMP280;40937;53.594;10.034;2023-02-15T05:13:40;102917.91;;;4.64
55038;BMP280;40937;53.594;10.034;2023-02-15T05:16:07;102913.63;;;4.63
55038;BMP280;40937;53.594;10.034;2023-02-15T05:18:34;102919.41;;;4.67
55038;BMP280;40937;53.594;10.034;2023-02-15T05:21:04;102912.41;;;4.67
55038;BMP280;40937;53.594;10.034;2023-02-15T05:23:32;102910.34;;;4.61
55038;BMP280;40937;53.594;10.034;2023-02-15T05:26:00;102912.25;;;4.59
55038;BMP280;40937;53.594;10.034;2023-02-15T05:28:44;102914.03;;;4.58
55038;BMP280;40937;53.594;10.034;2023-02-15T05:31:13;102922.84;;;4.57
55038;BMP280;40937;53.594;10.034;2023-02-15T05:33:41;102924.75;;;4.55
55038;BMP280;40937;53.594;10.034;2023-02-15T05:36:08;102911.28;;;4.50
55038;BMP280;40937;53.594;10.034;2023-02-15T05:38:36;102912.09;;;4.51
55038;BMP280;40937;53.594;10.034;2023-02-15T05:41:05;102909.03;;;4.46
55038;BMP280;40937;53.594;10.034;2023-02-15T05:43:33;102899.53;;;4.45
55038;BMP280;40937;53.594;10.034;2023-02-15T05:46:01;102892.66;;;4.44
55038;BMP280;40937;53.594;10.034;2023-02-15T05:48:28;102895.97;;;4.46
55038;BMP280;40937;53.594;10.034;2023-02-15T05:51:00;102894.19;;;4.46
55038;BMP280;40937;53.594;10.034;2023-02-15T05:53:28;102887.28;;;4.45
55038;BMP280;40937;53.594;10.034;2023-02-15T05:55:56;102886.47;;;4.45
55038;BMP280;40937;53.594;10.034;2023-02-15T05:58:27;102888.56;;;4.41
55038;BMP280;40937;53.594;10.034;2023-02-15T06:00:55;102890.31;;;4.40
55038;BMP280;40937;53.594;10.034;2023-02-15T06:03:23;102897.75;;;4.35
55038;BMP280;40937;53.594;10.034;2023-02-15T06:05:51;102889.22;;;4.33
55038;BMP280;40937;53.594;10.034;2023-02-15T06:08:19;102887.81;;;4.29
55038;BMP280;40937;53.594;10.034;2023-02-15T06:10:46;102888.31;;;4.23
55038;BMP280;40937;53.594;10.034;2023-02-15T06:13:13;102888.31;;;4.23
55038;BMP280;40937;53.594;10.034;2023-02-15T06:15:42;102891.63;;;4.25
55038;BMP280;40937;53.594;10.034;2023-02-15T06:18:09;102888.06;;;4.26
55038;BMP280;40937;53.594;10.034;2023-02-15T06:20:36;102891.75;;;4.24
55038;BMP280;40937;53.594;10.034;2023-02-15T06:23:03;102895.50;;;4.21
55038;BMP280;40937;53.594;10.034;2023-02-15T06:25:30;102895.75;;;4.18
55038;BMP280;40937;53.594;10.034;2023-02-15T06:27:58;102903.84;;;4.15
55038;BMP280;40937;53.594;10.034;2023-02-15T06:30:25;102897.69;;;4.16
55038;BMP280;40937;53.594;10.034;2023-02-15T06:32:53;102902.91;;;4.16
55038;BMP280;40937;53.594;10.034;2023-02-15T06:35:21;102904.56;;;4.17
55038;BMP280;40937;53.594;10.034;2023-02-15T06:37:48;102907.88;;;4.19
55038;BMP280;40937;53.594;10.034;2023-02-15T06:40:16;102911.44;;;4.18
55038;BMP280;40937;53.594;10.034;2023-02-15T06:42:43;102908.13;;;4.16
55038;BMP280;40937;53.594;10.034;2023-02-15T06:45:11;102908.41;;;4.13
55038;BMP280;40937;53.594;10.034;2023-02-15T06:47:38;102909.22;;;4.13
55038;BMP280;40937;53.594;10.034;2023-02-15T06:50:08;102900.31;;;4.16
55038;BMP280;40937;53.594;10.034;2023-02-15T06:52:36;102895.06;;;4.16
55038;BMP280;40937;53.594;10.034;2023-02-15T06:55:03;102897.94;;;4.13
55038;BMP280;40937;53.594;10.034;2023-02-15T06:57:31;102891.31;;;4.09
55038;BMP280;40937;53.594;10.034;2023-02-15T06:59:59;102892.00;;;4.11
55038;BMP280;40937;53.594;10.034;2023-02-15T07:02:26;102888.44;;;4.12
55038;BMP280;40937;53.594;10.034;2023-02-15T07:04:53;102887.75;;;4.10
55038;BMP280;40937;53.594;10.034;2023-02-15T07:07:22;102886.78;;;4.11
55038;BMP280;40937;53.594;10.034;2023-02-15T07:09:49;102889.38;;;4.11
55038;BMP280;40937;53.594;10.034;2023-02-15T07:12:17;102891.06;;;4.12
55038;BMP280;40937;53.594;10.034;2023-02-15T07:15:01;102884.41;;;4.08
55038;BMP280;40937;53.594;10.034;2023-02-15T07:17:30;102886.09;;;4.09
55038;BMP280;40937;53.594;10.034;2023-02-15T07:19:57;102886.09;;;4.09
55038;BMP280;40937;53.594;10.034;2023-02-15T07:22:26;102875.63;;;4.09
55038;BMP280;40937;53.594;10.034;2023-02-15T07:24:53;102877.16;;;4.11
55038;BMP280;40937;53.594;10.034;2023-02-15T07:27:21;102880.16;;;4.07
55038;BMP280;40937;53.594;10.034;2023-02-15T07:29:48;102878.50;;;4.06
55038;BMP280;40937;53.594;10.034;2023-02-15T07:32:15;102871.50;;;4.06
55038;BMP280;40937;53.594;10.034;2023-02-15T07:34:43;102872.34;;;4.07
55038;BMP280;40937;53.594;10.034;2023-02-15T07:37:10;102869.84;;;4.05
55038;BMP280;40937;53.594;10.034;2023-02-15T07:39:38;102864.03;;;4.01
55038;BMP280;40937;53.594;10.034;2023-02-15T07:42:06;102861.28;;;3.93
55038;BMP280;40937;53.594;10.034;2023-02-15T07:44:33;102866.25;;;3.96
55038;BMP280;40937;53.594;10.034;2023-02-15T07:47:00;102852.25;;;3.97
55038;BMP280;40937;53.594;10.034;2023-02-15T07:49:27;102852.38;;;3.96
55038;BMP280;40937;53.594;10.034;2023-02-15T07:51:54;102852.25;;;3.97
55038;BMP280;40937;53.594;10.034;2023-02-15T07:54:22;102853.75;;;4.00
55038;BMP280;40937;53.594;10.034;2023-02-15T07:56:50;102850.03;;;4.02
55038;BMP280;40937;53.594;10.034;2023-02-15T07:59:17;102855.53;;;3.99
55038;BMP280;40937;53.594;10.034;2023-02-15T08:01:44;102854.44;;;4.02
55038;BMP280;40937;53.594;10.034;2023-02-15T08:04:12;102853.88;;;3.98
55038;BMP280;40937;53.594;10.034;2023-02-15T08:06:39;102855.81;;;3.96
55038;BMP280;40937;53.594;10.034;2023-02-15T08:09:08;102856.88;;;3.94
55038;BMP280;40937;53.594;10.034;2023-02-15T08:11:37;102847.28;;;3.94
55038;BMP280;40937;53.594;10.034;2023-02-15T08:14:08;102846.16;;;3.97
55038;BMP280;40937;53.594;10.034;2023-02-15T08:16:37;102840.94;;;3.97
55038;BMP280;40937;53.594;10.034;2023-02-15T08:19:06;102835.72;;;3.97
55038;BMP280;40937;53.594;10.034;2023-02-15T08:21:35;102834.91;;;3.96
55038;BMP280;40937;53.594;10.034;2023-02-15T08:24:03;102834.91;;;3.96
55038;BMP280;40937;53.594;10.034;2023-02-15T08:26:31;102833.25;;;3.95
55038;BMP280;40937;53.594;10.034;2023-02-15T08:28:59;102836.84;;;3.94
55038;BMP280;40937;53.594;10.034;2023-02-15T08:31:28;102833.25;;;3.95
55038;BMP280;40937;53.594;10.034;2023-02-15T08:33:56;102832.94;;;3.89
55038;BMP280;40937;53.594;10.034;2023-02-15T08:36:26;102837.09;;;3.91
55038;BMP280;40937;53.594;10.034;2023-02-15T08:38:55;102838.97;;;3.89
55038;BMP280;40937;53.594;10.034;2023-02-15T08:41:25;102830.19;;;3.90
55038;BMP280;40937;53.594;10.034;2023-02-15T08:43:53;102842.56;;;3.88
55038;BMP280;40937;53.594;10.034;2023-02-15T08:46:23;102836.25;;;3.91
55038;BMP280;40937;53.594;10.034;2023-02-15T08:48:52;102844.22;;;3.89
55038;BMP280;40937;53.594;10.034;2023-02-15T08:51:21;102833.75;;;3.89
55038;BMP280;40937;53.594;10.034;2023-02-15T08:53:49;102823.06;;;3.92
55038;BMP280;40937;53.594;10.034;2023-02-15T08:56:19;102828.28;;;3.92
55038;BMP280;40937;53.594;10.034;2023-02-15T08:58:46;102824.28;;;3.88
55038;BMP280;40937;53.594;10.034;2023-02-15T09:01:15;102831.63;;;3.94
55038;BMP280;40937;53.594;10.034;2023-02-15T09:03:44;102826.06;;;3.88
55038;BMP280;40937;53.594;10.034;2023-02-15T09:06:14;102827.16;;;3.85
55038;BMP280;40937;53.594;10.034;2023-02-15T09:08:41;102830.72;;;3.84
55038;BMP280;40937;53.594;10.034;2023-02-15T09:11:10;102830.72;;;3.84
55038;BMP280;40937;53.594;10.034;2023-02-15T09:13:38;102820.97;;;3.86
55038;BMP280;40937;53.594;10.034;2023-02-15T09:16:08;102826.91;;;3.88
55038;BMP280;40937;53.594;10.034;2023-02-15T09:18:38;102822.50;;;3.89
55038;BMP280;40937;53.594;10.034;2023-02-15T09:21:07;102822.78;;;3.95
55038;BMP280;40937;53.594;10.034;2023-02-15T09:23:36;102818.09;;;3.89
55038;BMP280;40937;53.594;10.034;2023-02-15T09:26:05;102812.59;;;3.92
55038;BMP280;40937;53.594;10.034;2023-02-15T09:28:33;102808.66;;;3.98
55038;BMP280;40937;53.594;10.034;2023-02-15T09:31:08;102816.22;;;4.01
55038;BMP280;40937;53.594;10.034;2023-02-15T09:33:36;102813.75;;;3.99
55038;BMP280;40937;53.594;10.034;2023-02-15T09:36:04;102808.53;;;3.99
55038;BMP280;40937;53.594;10.034;2023-02-15T09:38:31;102806.44;;;3.93
55038;BMP280;40937;53.594;10.034;2023-02-15T09:41:11;102803.31;;;3.99
55038;BMP280;40937;53.594;10.034;2023-02-15T09:43:49;102802.19;;;4.02
55038;BMP280;40937;53.594;10.034;2023-02-15T09:46:31;102806.91;;;4.08
55038;BMP280;40937;53.594;10.034;2023-02-15T09:49:05;102808.53;;;4.09
55038;BMP280;40937;53.594;10.034;2023-02-15T09:54:42;102810.75;;;4.14
55038;BMP280;40937;53.594;10.034;2023-02-15T09:57:19;102805.28;;;4.17
55038;BMP280;40937;53.594;10.034;2023-02-15T09:59:56;102805.00;;;4.20
55038;BMP280;40937;53.594;10.034;2023-02-15T10:02:36;102803.38;;;4.19
55038;BMP280;40937;53.594;10.034;2023-02-15T10:05:15;102805.13;;;4.18
55038;BMP280;40937;53.594;10.034;2023-02-15T10:08:02;102806.38;;;4.24
55038;BMP280;40937;53.594;10.034;2023-02-15T10:10:38;102811.72;;;4.22
55038;BMP280;40937;53.594;10.034;2023-02-15T10:13:21;102810.88;;;4.22
55038;BMP280;40937;53.594;10.034;2023-02-15T10:15:58;102812.16;;;4.18
55038;BMP280;40937;53.594;10.034;2023-02-15T10:18:38;102815.47;;;4.20
55038;BMP280;40937;53.594;10.034;2023-02-15T10:21:18;102814.91;;;4.26
55038;BMP280;40937;53.594;10.034;2023-02-15T10:24:00;102802.25;;;4.31
55038;BMP280;40937;53.594;10.034;2023-02-15T10:26:35;102813.16;;;4.36
55038;BMP280;40937;53.594;10.034;2023-02-15T10:29:15;102816.47;;;4.38
55038;BMP280;40937;53.594;10.034;2023-02-15T10:31:48;102815.78;;;4.36
55038;BMP280;40937;53.594;10.034;2023-02-15T10:34:18;102822.63;;;4.37
55038;BMP280;40937;53.594;10.034;2023-02-15T10:37:03;102817.16;;;4.40
55038;BMP280;40937;53.594;10.034;2023-02-15T10:39:41;102821.69;;;4.38
55038;BMP280;40937;53.594;10.034;2023-02-15T10:42:17;102821.41;;;4.42
55038;BMP280;40937;53.594;10.034;2023-02-15T10:45:00;102824.31;;;4.38
55038;BMP280;40937;53.594;10.034;2023-02-15T10:47:41;102818.50;;;4.45
55038;BMP280;40937;53.594;10.034;2023-02-15T10:50:19;102815.63;;;4.48
55038;BMP280;40937;53.594;10.034;2023-02-15T10:52:58;102809.72;;;4.46
55038;BMP280;40937;53.594;10.034;2023-02-15T10:55:40;102806.69;;;4.40
55038;BMP280;40937;53.594;10.034;2023-02-15T10:58:15;102800.78;;;4.38
55038;BMP280;40937;53.594;10.034;2023-02-15T11:00:50;102798.72;;;4.42
55038;BMP280;40937;53.594;10.034;2023-02-15T11:03:33;102792.09;;;4.48
55038;BMP280;40937;53.594;10.034;2023-02-15T11:06:05;102792.53;;;4.53
55038;BMP280;40937;53.594;10.034;2023-02-15T11:08:39;102788.97;;;4.54
55038;BMP280;40937;53.594;10.034;2023-02-15T11:11:09;102786.75;;;4.59
55038;BMP280;40937;53.594;10.034;2023-02-15T11:13:41;102784.16;;;4.59
55038;BMP280;40937;53.594;10.034;2023-02-15T11:16:17;102790.75;;;4.63
55038;BMP280;40937;53.594;10.034;2023-02-15T11:18:50;102781.69;;;4.67
55038;BMP280;40937;53.594;10.034;2023-02-15T11:21:22;102784.97;;;4.69
55038;BMP280;40937;53.594;10.034;2023-02-15T11:23:52;102791.00;;;4.70
55038;BMP280;40937;53.594;10.034;2023-02-15T11:26:30;102782.75;;;4.74
55038;BMP280;40937;53.594;10.034;2023-02-15T11:29:08;102782.50;;;4.77
55038;BMP280;40937;53.594;10.034;2023-02-15T11:31:46;102783.31;;;4.88
55038;BMP280;40937;53.594;10.034;2023-02-15T11:34:19;102776.97;;;4.90
55038;BMP280;40937;53.594;10.034;2023-02-15T11:36:49;102780.25;;;4.83
55038;BMP280;40937;53.594;10.034;2023-02-15T11:39:18;102776.69;;;4.84
55038;BMP280;40937;53.594;10.034;2023-02-15T11:41:49;102756.88;;;4.91
55038;BMP280;40937;53.594;10.034;2023-02-15T11:44:22;102761.84;;;4.94
55038;BMP280;40937;53.594;10.034;2023-02-15T11:46:52;102753.13;;;5.03
55038;BMP280;40937;53.594;10.034;2023-02-15T11:49:22;102740.59;;;5.07
55038;BMP280;40937;53.594;10.034;2023-02-15T11:51:50;102737.56;;;5.11
55038;BMP280;40937;53.594;10.034;2023-02-15T11:54:21;102730.78;;;5.19
55038;BMP280;40937;53.594;10.034;2023-02-15T11:56:50;102730.22;;;5.25
55038;BMP280;40937;53.594;10.034;2023-02-15T11:59:21;102732.53;;;5.28
55038;BMP280;40937;53.594;10.034;2023-02-15T12:01:53;102725.75;;;5.35
55038;BMP280;40937;53.594;10.034;2023-02-15T12:04:23;102723.38;;;5.42
55038;BMP280;40937;53.594;10.034;2023-02-15T12:06:57;102721.19;;;5.47
55038;BMP280;40937;53.594;10.034;2023-02-15T12:09:30;102708.31;;;5.53
55038;BMP280;40937;53.594;10.034;2023-02-15T12:12:23;102705.41;;;5.57
55038;BMP280;40937;53.594;10.034;2023-02-15T12:14:53;102696.81;;;5.64
55038;BMP280;40937;53.594;10.034;2023-02-15T12:17:26;102700.06;;;5.76
55038;BMP280;40937;53.594;10.034;2023-02-15T12:19:56;102698.47;;;5.83
55038;BMP280;40937;53.594;10.034;2023-02-15T12:22:27;102700.88;;;5.95
55038;BMP280;40937;53.594;10.034;2023-02-15T12:24:58;102693.78;;;6.05
55038;BMP280;40937;53.594;10.034;2023-02-15T12:27:29;102696.16;;;6.16
55038;BMP280;40937;53.594;10.034;2023-02-15T12:30:01;102686.41;;;6.26
55038;BMP280;40937;53.594;10.034;2023-02-15T12:32:46;102691.25;;;6.39
55038;BMP280;40937;53.594;10.034;2023-02-15T12:35:21;102682.69;;;6.55
55038;BMP280;40937;53.594;10.034;2023-02-15T12:38:02;102679.16;;;6.64
55038;BMP280;40937;53.594;10.034;2023-02-15T12:40:33;102681.53;;;6.76
55038;BMP280;40937;53.594;10.034;2023-02-15T12:43:02;102674.00;;;6.81
55038;BMP280;40937;53.594;10.034;2023-02-15T12:45:36;102673.22;;;6.89
55038;BMP280;40937;53.594;10.034;2023-02-15T12:48:16;102673.25;;;6.97
55038;BMP280;40937;53.594;10.034;2023-02-15T12:50:47;102676.75;;;7.06
55038;BMP280;40937;53.594;10.034;2023-02-15T12:53:17;102666.94;;;7.16
55038;BMP280;40937;53.594;10.034;2023-02-15T12:55:52;102659.59;;;7.28
55038;BMP280;40937;53.594;10.034;2023-02-15T12:58:23;102656.19;;;7.35
55038;BMP280;40937;53.594;10.034;2023-02-15T13:01:10;102655.19;;;7.45
55038;BMP280;40937;53.594;10.034;2023-02-15T13:03:56;102660.47;;;7.53
55038;BMP280;40937;53.594;10.034;2023-02-15T13:06:25;102643.75;;;7.62
55038;BMP280;40937;53.594;10.034;2023-02-15T13:08:55;102649.00;;;7.70
55038;BMP280;40937;53.594;10.034;2023-02-15T13:11:26;102643.59;;;7.80
55038;BMP280;40937;53.594;10.034;2023-02-15T13:14:02;102651.47;;;7.88
55038;BMP280;40937;53.594;10.034;2023-02-15T13:16:32;102646.38;;;7.95
55038;BMP280;40937;53.594;10.034;2023-02-15T13:19:08;102632.91;;;7.98
55038;BMP280;40937;53.594;10.034;2023-02-15T13:21:41;102636.00;;;8.02
55038;BMP280;40937;53.594;10.034;2023-02-15T13:24:17;102633.22;;;8.03
55038;BMP280;40937;53.594;10.034;2023-02-15T13:26:47;102626.00;;;8.05
55038;BMP280;40937;53.594;10.034;2023-02-15T13:29:17;102624.53;;;8.03
55038;BMP280;40937;53.594;10.034;2023-02-15T13:31:45;102632.56;;;8.01
55038;BMP280;40937;53.594;10.034;2023-02-15T13:34:22;102628.28;;;8.00
55038;BMP280;40937;53.594;10.034;2023-02-15T13:36:57;102636.84;;;8.02
55038;BMP280;40937;53.594;10.034;2023-02-15T13:39:35;102627.97;;;8.03
55038;BMP280;40937;53.594;10.034;2023-02-15T13:42:15;102618.78;;;7.99
55038;BMP280;40937;53.594;10.034;2023-02-15T13:45:09;102619.44;;;7.93
55038;BMP280;40937;53.594;10.034;2023-02-15T13:47:45;102617.63;;;7.93
55038;BMP280;40937;53.594;10.034;2023-02-15T13:50:31;102612.53;;;7.92
55038;BMP280;40937;53.594;10.034;2023-02-15T13:53:19;102613.34;;;7.92
55038;BMP280;40937;53.594;10.034;2023-02-15T13:55:51;102609.91;;;7.92
55038;BMP280;40937;53.594;10.034;2023-02-15T13:58:45;102611.56;;;7.93
55038;BMP280;40937;53.594;10.034;2023-02-15T14:01:22;102604.50;;;7.93
55038;BMP280;40937;53.594;10.034;2023-02-15T14:04:07;102599.41;;;7.92
55038;BMP280;40937;53.594;10.034;2023-02-15T14:07:01;102601.22;;;7.91
55038;BMP280;40937;53.594;10.034;2023-02-15T14:09:42;102592.47;;;7.91
55038;BMP280;40937;53.594;10.034;2023-02-15T14:12:24;102601.69;;;7.95
55038;BMP280;40937;53.594;10.034;2023-02-15T14:15:19;102600.38;;;7.99
55038;BMP280;40937;53.594;10.034;2023-02-15T14:17:50;102591.47;;;8.00
55038;BMP280;40937;53.594;10.034;2023-02-15T14:20:24;102587.22;;;7.99
55038;BMP280;40937;53.594;10.034;2023-02-15T14:23:02;102591.47;;;8.00
55038;BMP280;40937;53.594;10.034;2023-02-15T14:25:35;102584.59;;;7.99
55038;BMP280;40937;53.594;10.034;2023-02-15T14:28:08;102587.88;;;8.01
55038;BMP280;40937;53.594;10.034;2023-02-15T14:30:39;102582.63;;;8.01